Airfield :
LOGIN :

Register | Disclaimer

   EN    FR    IT 

 










Legend :    VFR   Marginal VFR   IFR   Intensive IFR   Very Intensive IFR
Visi :
Ceiling :
>= 8 km
>= 3000ft
5 to 8 km
1000 to 3000 ft
1500m to 5 km
500 to 1000 ft
800 to 1500m
200 to 500 ft
< 800m
< 200 ft
Symbols :   Thunderstorms  Fog  Heavy snow  Heavy precipitations  Wind > 20 kt
SIGMETs :     Misc.  Thunderstorms  Icing  Turbulence  Mountain Waves  Volcanic Ashes






- Airport Elevation : 219 ft
- IATA code : DNR


LFRD - Dinard

CURRENT METAR :
  • 281830Z AUTO 05019KT 9999 OVC026 09/04 Q1024

EXPIRED METARs :
  • 281800Z AUTO 05015KT 020V080 9999 OVC025 09/04 Q1024
  • 281730Z AUTO 05017KT 9999 OVC023 09/05 Q1023
  • 281700Z AUTO 05016KT 020V080 8000 OVC022 10/06 Q1023
  • 281630Z AUTO 05015KT 6000 OVC020 10/06 Q1023
  • 281600Z AUTO 05017KT 7000 OVC020 10/06 Q1023

Expired Forecast.
ATIS : +33 2 99 16 81 50



MET'MAP, your aeronautical weather chart ! - Copyright ORBIFLY December 2007 - Disclaimer

ORBIFLY MET'MAP TEAM :

Programming & Development : Alexandra Zaïnal
Concept & original design : Baudouin d'Aumeries
Assistance for programming : Marc-Olivier Méhu
Technical & hardware support : Manuel Goepfert

Contact : metmap@orbifly.com




SOURCES & CREDITS :

   NOAA